Time;durP1;ratioP1;P1;durP2;ratioP2;P2;SDS_P1;SDS_P2;PMS_P1;PMS_P2;Temp;Humidity;BMP_temperature;BMP_pressure;BME280_temperature;BME280_humidity;BME280_pressure;Samples;Min_cycle;Max_cycle;Signal;HPM_P1;HPM_P2
2023/03/09 10:50:56;;;;;;;11.13;5.30;;;10.70;99.90;;;;;;4922945;23;20241;-80
2023/03/09 10:53:35;;;;;;;12.07;5.00;;;11.00;99.90;;;;;;4917669;29;20263;-79
2023/03/09 10:56:12;;;;;;;11.37;5.00;;;11.10;99.90;;;;;;4918230;29;20276;-79
2023/03/09 10:58:39;;;;;;;16.23;5.67;;;11.10;99.90;;;;;;4899245;29;20669;-79
2023/03/09 11:01:19;;;;;;;10.73;4.57;;;11.30;99.90;;;;;;4899462;29;20305;-80
2023/03/09 11:03:46;;;;;;;11.77;4.90;;;11.20;99.90;;;;;;4899406;29;20210;-80
2023/03/09 11:06:42;;;;;;;9.23;4.80;;;11.30;99.90;;;;;;4899278;29;20221;-79
2023/03/09 11:09:13;;;;;;;12.77;5.20;;;11.40;99.90;;;;;;4866454;29;20214;-79
2023/03/09 11:11:41;;;;;;;11.13;5.40;;;11.50;99.90;;;;;;4899313;29;20226;-80
2023/03/09 11:14:22;;;;;;;9.63;4.70;;;11.70;99.90;;;;;;4899487;29;20211;-80
2023/03/09 11:16:50;;;;;;;12.50;5.10;;;11.60;99.90;;;;;;4898984;29;20726;-81
2023/03/09 11:19:19;;;;;;;10.40;5.23;;;11.60;99.90;;;;;;4899292;29;20298;-80
2023/03/09 11:21:52;;;;;;;10.03;5.20;;;11.60;99.90;;;;;;4899122;29;20582;-80
2023/03/09 11:24:20;;;;;;;13.57;5.07;;;11.70;99.90;;;;;;4899169;29;20301;-79
2023/03/09 11:26:54;;;;;;;11.07;5.67;;;11.80;99.90;;;;;;4899019;29;20230;-79
2023/03/09 11:29:29;;;;;;;11.07;4.53;;;11.80;99.90;;;;;;4899666;29;20220;-79
2023/03/09 11:31:56;;;;;;;11.37;5.73;;;11.70;99.90;;;;;;4899810;29;20728;-79
2023/03/09 11:34:27;;;;;;;12.50;5.60;;;11.30;99.90;;;;;;4899028;29;20220;-78
2023/03/09 11:37:00;;;;;;;10.90;5.70;;;11.20;99.90;;;;;;4898471;29;20231;-79
2023/03/09 11:39:33;;;;;;;13.93;5.40;;;11.10;99.90;;;;;;4898205;29;20217;-81
2023/03/09 11:42:01;;;;;;;12.17;5.53;;;11.20;99.90;;;;;;4898595;29;20214;-81
2023/03/09 11:44:34;;;;;;;12.70;5.43;;;11.30;99.90;;;;;;4898642;29;20206;-81
2023/03/09 11:47:05;;;;;;;16.57;6.90;;;11.30;99.90;;;;;;4898509;29;20235;-81
2023/03/09 11:49:32;;;;;;;13.40;5.93;;;11.30;99.90;;;;;;4898568;29;20216;-81
2023/03/09 11:52:01;;;;;;;11.77;5.10;;;11.40;99.90;;;;;;4898528;29;20234;-80
2023/03/09 11:54:33;;;;;;;12.60;5.40;;;11.20;99.90;;;;;;4898559;29;20239;-81
2023/03/09 11:57:05;;;;;;;10.70;5.03;;;11.20;99.90;;;;;;4898294;29;20581;-82
2023/03/09 11:59:38;;;;;;;8.60;4.40;;;11.60;99.90;;;;;;4898446;29;20222;-81
2023/03/09 12:02:14;;;;;;;6.80;2.83;;;11.90;99.90;;;;;;4898400;29;20211;-81
2023/03/09 12:04:41;;;;;;;8.93;2.57;;;11.80;99.90;;;;;;4898219;29;20257;-81
2023/03/09 12:07:17;;;;;;;9.47;1.53;;;11.90;99.90;;;;;;4898251;29;20230;-81
2023/03/09 12:09:53;;;;;;;4.60;1.03;;;11.90;99.90;;;;;;4898324;29;20222;-80
2023/03/09 12:12:27;;;;;;;6.97;1.00;;;12.10;99.90;;;;;;4898294;29;20735;-81
2023/03/09 12:14:58;;;;;;;5.07;0.90;;;11.80;99.90;;;;;;4898353;29;20210;-81
2023/03/09 12:17:31;;;;;;;2.63;0.80;;;11.80;99.90;;;;;;4898172;29;20589;-81
2023/03/09 12:19:59;;;;;;;4.70;1.40;;;11.80;99.90;;;;;;4898090;29;20206;-80
2023/03/09 12:22:32;;;;;;;7.27;1.17;;;11.80;99.90;;;;;;4898012;29;20211;-81
2023/03/09 12:25:01;;;;;;;5.50;1.47;;;12.00;99.90;;;;;;4898169;29;20220;-80
2023/03/09 12:27:31;;;;;;;8.13;1.13;;;12.10;99.90;;;;;;4897938;29;20321;-80
2023/03/09 12:30:11;;;;;;;9.40;1.20;;;12.30;99.90;;;;;;4898070;29;20210;-81
2023/03/09 12:32:41;;;;;;;6.43;1.30;;;12.50;99.90;;;;;;4897829;29;20313;-81
2023/03/09 12:35:40;;;;;;;5.17;1.37;;;12.60;99.90;;;;;;4897913;29;20210;-81
2023/03/09 12:38:22;;;;;;;8.43;1.70;;;12.50;99.90;;;;;;4897528;29;20245;-80
2023/03/09 12:40:50;;;;;;;6.00;1.00;;;12.50;99.90;;;;;;4898018;29;20218;-81
2023/03/09 12:43:53;;;;;;;9.50;1.37;;;12.50;99.90;;;;;;4898101;29;20305;-81
2023/03/09 12:46:56;;;;;;;6.33;1.33;;;12.50;99.90;;;;;;4897841;29;20771;-80
2023/03/09 12:49:35;;;;;;;8.23;1.30;;;12.50;99.90;;;;;;4893920;29;20213;-78
2023/03/09 12:52:28;;;;;;;9.50;1.43;;;12.70;99.90;;;;;;4900750;29;20238;-81
2023/03/09 12:55:04;;;;;;;8.07;1.13;;;12.70;99.90;;;;;;4901469;29;20210;-81
2023/03/09 12:57:31;;;;;;;8.40;1.10;;;12.70;99.90;;;;;;4901392;29;20225;-82
2023/03/09 13:00:37;;;;;;;4.30;1.10;;;12.90;99.90;;;;;;4901350;29;20210;-80
2023/03/09 13:03:14;;;;;;;11.10;1.30;;;13.10;99.90;;;;;;4891456;29;20673;-81
2023/03/09 13:05:45;;;;;;;6.00;1.07;;;13.30;99.90;;;;;;4901258;29;20209;-78
2023/03/09 13:08:22;;;;;;;9.33;1.10;;;13.30;99.90;;;;;;4901060;29;20253;-80
2023/03/09 13:10:51;;;;;;;6.70;1.00;;;13.30;99.90;;;;;;4900921;29;20673;-80
2023/03/09 13:13:36;;;;;;;6.13;1.00;;;13.20;99.90;;;;;;4900938;29;20324;-78
2023/03/09 13:16:37;;;;;;;7.67;1.20;;;13.30;99.90;;;;;;4901381;29;20347;-77
2023/03/09 13:19:50;;;;;;;6.17;1.00;;;13.40;99.90;;;;;;4879748;29;20229;-77
2023/03/09 13:22:31;;;;;;;2.40;0.70;;;13.30;99.90;;;;;;4900973;29;20210;-78
2023/03/09 13:25:35;;;;;;;5.17;0.83;;;13.40;99.90;;;;;;4900978;29;20673;-79
2023/03/09 13:28:26;;;;;;;6.03;1.20;;;13.30;99.90;;;;;;4900536;29;20233;-79
2023/03/09 13:30:57;;;;;;;7.73;1.00;;;13.40;99.90;;;;;;4901041;29;20224;-78
2023/03/09 13:33:26;;;;;;;3.67;1.03;;;13.50;99.90;;;;;;4901056;29;20242;-77
2023/03/09 13:35:57;;;;;;;6.50;0.90;;;13.50;99.90;;;;;;4900515;29;20301;-77
2023/03/09 13:38:28;;;;;;;5.53;1.20;;;13.40;99.90;;;;;;4900400;29;20237;-78
2023/03/09 13:40:57;;;;;;;5.47;1.17;;;13.40;99.90;;;;;;4901199;29;20573;-78
2023/03/09 13:43:30;;;;;;;7.50;1.17;;;13.30;99.90;;;;;;4900660;29;20216;-76
2023/03/09 13:46:02;;;;;;;6.17;1.67;;;13.40;99.90;;;;;;4900419;29;20634;-77
2023/03/09 13:48:31;;;;;;;7.40;0.93;;;13.50;99.90;;;;;;4900648;29;20206;-75
2023/03/09 13:50:58;;;;;;;6.17;1.03;;;13.50;99.90;;;;;;4900187;29;20344;-76
2023/03/09 13:53:27;;;;;;;7.60;0.83;;;13.60;99.90;;;;;;4900510;29;20238;-76
2023/03/09 13:56:01;;;;;;;6.83;0.77;;;13.70;99.90;;;;;;4900560;29;20221;-75
2023/03/09 13:58:37;;;;;;;5.80;1.03;;;13.60;99.90;;;;;;4900378;29;20206;-84
2023/03/09 14:01:05;;;;;;;4.33;0.90;;;13.60;99.90;;;;;;4895727;29;20217;-76
2023/03/09 14:03:34;;;;;;;5.53;0.80;;;13.50;99.90;;;;;;4896367;29;20658;-76
2023/03/09 14:06:03;;;;;;;6.97;0.87;;;13.30;99.90;;;;;;4898638;29;20305;-73
2023/03/09 14:08:35;;;;;;;6.60;1.20;;;13.10;99.90;;;;;;4897829;29;20210;-74
2023/03/09 14:11:06;;;;;;;8.33;0.90;;;13.10;99.90;;;;;;4898259;29;20221;-77
2023/03/09 14:13:35;;;;;;;5.57;1.10;;;12.90;99.90;;;;;;4898054;29;20238;-74
2023/03/09 14:16:07;;;;;;;9.47;1.20;;;12.60;99.90;;;;;;4898069;29;20701;-75
2023/03/09 14:18:38;;;;;;;10.97;1.03;;;12.40;99.90;;;;;;4898662;29;20253;-75
2023/03/09 14:21:17;;;;;;;11.40;2.30;;;12.40;99.90;;;;;;4898609;29;20293;-78
2023/03/09 14:23:44;;;;;;;7.27;1.23;;;12.10;99.90;;;;;;4898542;29;20216;-84
2023/03/09 14:26:11;;;;;;;11.27;2.07;;;12.10;99.90;;;;;;4898840;29;20258;-79
2023/03/09 14:28:42;;;;;;;7.30;1.67;;;12.10;99.90;;;;;;4898771;29;20565;-82
2023/03/09 14:31:16;;;;;;;10.00;1.40;;;12.20;99.90;;;;;;4897847;29;20210;-76
2023/03/09 14:33:56;;;;;;;6.20;1.40;;;12.30;99.90;;;;;;4898363;29;20383;-74
2023/03/09 14:36:24;;;;;;;12.17;1.40;;;12.40;99.90;;;;;;4898195;29;20226;-75
2023/03/09 14:38:56;;;;;;;4.10;0.80;;;12.50;99.90;;;;;;4897802;29;20310;-81
2023/03/09 14:41:25;;;;;;;8.30;1.23;;;12.60;99.90;;;;;;4898141;29;20213;-76
2023/03/09 14:43:54;;;;;;;9.73;1.20;;;12.60;99.90;;;;;;4898167;29;20218;-81
2023/03/09 14:46:24;;;;;;;5.97;0.97;;;12.80;99.90;;;;;;4897507;29;20290;-74
2023/03/09 14:48:53;;;;;;;3.63;1.13;;;13.00;99.90;;;;;;4898747;29;20217;-75
2023/03/09 14:51:23;;;;;;;7.77;1.00;;;13.10;99.90;;;;;;4897756;29;20307;-75
2023/03/09 14:54:01;;;;;;;6.23;1.00;;;13.10;99.90;;;;;;4897763;29;20245;-75
2023/03/09 14:56:30;;;;;;;3.30;0.67;;;13.10;99.90;;;;;;4898199;29;20238;-73
2023/03/09 14:59:01;;;;;;;5.57;0.87;;;13.20;99.90;;;;;;4897867;29;20211;-73
2023/03/09 15:01:30;;;;;;;7.20;1.10;;;13.20;99.90;;;;;;4897166;29;20286;-75
2023/03/09 15:03:58;;;;;;;3.43;0.63;;;13.30;99.90;;;;;;4899058;29;20250;-75
2023/03/09 15:06:25;;;;;;;6.33;0.80;;;13.30;99.90;;;;;;4899196;29;20562;-76
2023/03/09 15:08:52;;;;;;;8.33;0.97;;;13.30;99.90;;;;;;4898547;29;20218;-82
2023/03/09 15:11:21;;;;;;;9.23;0.90;;;13.40;99.90;;;;;;4899117;29;20214;-76
2023/03/09 15:13:48;;;;;;;8.07;1.90;;;13.30;99.90;;;;;;4898133;29;20261;-77
2023/03/09 15:16:16;;;;;;;17.10;1.00;;;13.20;99.90;;;;;;4898894;29;20211;-77
2023/03/09 15:18:43;;;;;;;9.30;0.90;;;13.20;99.90;;;;;;4898778;29;20662;-76
2023/03/09 15:21:10;;;;;;;10.27;1.40;;;13.20;99.90;;;;;;4899161;29;20304;-75
2023/03/09 15:23:36;;;;;;;2.67;0.70;;;13.20;99.90;;;;;;4898822;29;20215;-75
2023/03/09 15:26:04;;;;;;;8.53;1.10;;;13.30;99.90;;;;;;4898458;29;20210;-75
2023/03/09 15:28:31;;;;;;;4.77;1.00;;;13.40;99.90;;;;;;4898583;29;20210;-76
2023/03/09 15:30:59;;;;;;;6.80;1.20;;;13.40;99.90;;;;;;4898692;29;20220;-76
2023/03/09 15:33:34;;;;;;;6.77;0.87;;;13.40;99.90;;;;;;5152061;27;20555;-76
2023/03/09 15:36:01;;;;;;;9.00;1.17;;;13.50;99.90;;;;;;5133818;27;20213;-77
2023/03/09 15:38:27;;;;;;;5.90;1.27;;;13.60;99.90;;;;;;5130891;27;20579;-77
2023/03/09 15:40:54;;;;;;;5.23;0.67;;;13.60;99.90;;;;;;5130961;28;20212;-77
2023/03/09 15:43:21;;;;;;;9.97;1.10;;;13.50;99.90;;;;;;5136150;27;20287;-78
2023/03/09 15:45:48;;;;;;;6.83;1.30;;;13.40;99.90;;;;;;5151853;27;20307;-77
2023/03/09 15:48:15;;;;;;;6.07;0.70;;;13.30;99.90;;;;;;5148521;27;20225;-77
2023/03/09 15:50:49;;;;;;;11.83;1.20;;;13.30;99.90;;;;;;5131052;28;20292;-77
2023/03/09 15:53:16;;;;;;;9.43;1.00;;;13.20;99.90;;;;;;5130891;28;20606;-77
2023/03/09 15:55:44;;;;;;;6.33;1.33;;;13.20;99.90;;;;;;5130647;28;20201;-78
2023/03/09 15:58:11;;;;;;;8.77;1.87;;;13.20;99.90;;;;;;5130458;27;20225;-77
2023/03/09 16:00:38;;;;;;;5.70;1.10;;;13.10;99.90;;;;;;5131137;28;20594;-77
2023/03/09 16:03:05;;;;;;;7.17;0.90;;;13.00;99.90;;;;;;5130102;27;20203;-74
2023/03/09 16:05:32;;;;;;;12.33;1.30;;;13.00;99.90;;;;;;5130527;28;20208;-75
2023/03/09 16:08:00;;;;;;;6.97;1.53;;;13.10;99.90;;;;;;5130362;28;20225;-73
2023/03/09 16:10:27;;;;;;;10.07;1.20;;;13.00;99.90;;;;;;5130564;28;20223;-74
2023/03/09 16:12:54;;;;;;;8.50;1.07;;;12.90;99.90;;;;;;5130552;28;20587;-74
2023/03/09 16:15:21;;;;;;;1.83;0.63;;;12.90;99.90;;;;;;5130823;28;20198;-74
2023/03/09 16:17:48;;;;;;;5.43;0.90;;;13.00;99.90;;;;;;5130405;28;20223;-74
2023/03/09 16:20:16;;;;;;;3.60;0.70;;;12.90;99.90;;;;;;5130490;28;20263;-74
2023/03/09 16:22:47;;;;;;;6.50;1.10;;;12.90;99.90;;;;;;5130169;28;20201;-73
2023/03/09 16:25:15;;;;;;;12.13;1.13;;;12.90;99.90;;;;;;5130215;28;20211;-73
2023/03/09 16:27:43;;;;;;;5.77;1.40;;;12.90;99.90;;;;;;5130513;28;20268;-74
2023/03/09 16:30:11;;;;;;;5.63;1.07;;;12.80;99.90;;;;;;5130494;28;20205;-73
2023/03/09 16:32:38;;;;;;;5.27;0.80;;;12.80;99.90;;;;;;5130124;28;20233;-73
2023/03/09 16:35:06;;;;;;;10.67;1.47;;;12.70;99.90;;;;;;5130428;28;20401;-74
2023/03/09 16:37:33;;;;;;;10.37;1.10;;;12.60;99.90;;;;;;5129976;28;20225;-73
2023/03/09 16:40:00;;;;;;;4.17;1.20;;;12.50;99.90;;;;;;5130365;28;20197;-74
2023/03/09 16:42:29;;;;;;;10.10;1.10;;;12.40;99.90;;;;;;5130258;28;20208;-75
2023/03/09 16:44:57;;;;;;;9.27;1.27;;;12.30;99.90;;;;;;5116353;28;20208;-75
2023/03/09 16:47:24;;;;;;;8.17;1.10;;;12.20;99.90;;;;;;5116741;28;20244;-75
2023/03/09 16:49:57;;;;;;;6.30;1.10;;;12.10;99.90;;;;;;5116190;28;20212;-74
2023/03/09 16:52:24;;;;;;;6.57;1.13;;;12.00;99.90;;;;;;5115989;28;20695;-73
2023/03/09 16:54:56;;;;;;;8.97;2.37;;;11.90;99.90;;;;;;5116224;28;20205;-76
2023/03/09 16:57:22;;;;;;;11.77;1.80;;;11.90;99.90;;;;;;5115980;28;20714;-73
2023/03/09 16:59:53;;;;;;;9.97;1.13;;;11.90;99.90;;;;;;5115935;28;20223;-73
2023/03/09 17:02:20;;;;;;;9.60;2.33;;;11.90;99.90;;;;;;5115720;28;20719;-75
2023/03/09 17:04:47;;;;;;;8.47;1.40;;;11.90;99.90;;;;;;5115443;28;20202;-74
2023/03/09 17:07:15;;;;;;;14.33;1.90;;;11.90;99.90;;;;;;5115619;28;20225;-73
2023/03/09 17:09:42;;;;;;;6.60;1.63;;;11.80;99.90;;;;;;5115622;28;20258;-73
2023/03/09 17:12:09;;;;;;;11.13;1.43;;;11.80;99.90;;;;;;5115696;28;20633;-73
2023/03/09 17:14:36;;;;;;;5.30;1.70;;;11.80;99.90;;;;;;5115710;28;20289;-74
2023/03/09 17:17:05;;;;;;;6.57;1.27;;;11.80;99.90;;;;;;5115337;28;20276;-73
2023/03/09 17:19:32;;;;;;;10.07;1.30;;;11.80;99.90;;;;;;5115816;28;20194;-75
2023/03/09 17:21:59;;;;;;;10.20;1.50;;;11.80;99.90;;;;;;5115392;28;20197;-75
2023/03/09 17:24:30;;;;;;;4.50;1.07;;;11.70;99.90;;;;;;5115927;28;20213;-74
2023/03/09 17:26:58;;;;;;;9.77;1.60;;;11.60;99.90;;;;;;5115522;28;20225;-74
2023/03/09 17:29:25;;;;;;;6.63;1.60;;;11.60;99.90;;;;;;5115068;28;20206;-73
2023/03/09 17:31:52;;;;;;;9.73;1.67;;;11.60;99.90;;;;;;5115091;28;20217;-74
2023/03/09 17:34:21;;;;;;;6.97;1.47;;;11.50;99.90;;;;;;5115220;28;20703;-74
2023/03/09 17:36:48;;;;;;;11.50;1.40;;;11.40;99.90;;;;;;5115226;28;20222;-74
2023/03/09 17:39:16;;;;;;;11.30;1.80;;;11.30;99.90;;;;;;5115209;28;20197;-74
2023/03/09 17:41:43;;;;;;;13.43;2.17;;;11.30;99.90;;;;;;5115253;28;20197;-74
2023/03/09 17:44:10;;;;;;;4.13;1.13;;;11.20;99.90;;;;;;5115132;28;20797;-74
2023/03/09 17:46:37;;;;;;;8.30;1.63;;;11.10;99.90;;;;;;5114996;28;20695;-74
2023/03/09 17:49:04;;;;;;;13.57;2.77;;;11.20;99.90;;;;;;5115135;28;20197;-74
2023/03/09 17:51:32;;;;;;;15.77;3.73;;;11.10;99.90;;;;;;5114892;28;20679;-75
2023/03/09 17:53:59;;;;;;;6.10;1.30;;;11.10;99.90;;;;;;5114939;28;20232;-75
2023/03/09 17:56:26;;;;;;;10.47;1.97;;;11.00;99.90;;;;;;5113996;28;20312;-74
2023/03/09 17:58:53;;;;;;;8.70;1.87;;;10.90;99.90;;;;;;5114626;28;20300;-74
2023/03/09 18:01:23;;;;;;;8.83;2.10;;;11.00;99.90;;;;;;5114823;28;20205;-75
2023/03/09 18:03:50;;;;;;;16.00;2.33;;;11.00;99.90;;;;;;5114784;28;20206;-74
2023/03/09 18:06:24;;;;;;;10.77;1.67;;;11.00;99.90;;;;;;5114382;28;20209;-74
2023/03/09 18:08:52;;;;;;;5.43;1.50;;;10.90;99.90;;;;;;5114513;28;20284;-74
2023/03/09 18:11:22;;;;;;;11.43;1.53;;;11.00;99.90;;;;;;5114196;28;20202;-74
2023/03/09 18:13:50;;;;;;;13.93;1.97;;;11.00;99.90;;;;;;5114256;28;20319;-75
2023/03/09 18:16:17;;;;;;;7.10;1.40;;;11.00;99.90;;;;;;5113987;28;20206;-74
2023/03/09 18:18:43;;;;;;;13.37;2.33;;;11.00;99.90;;;;;;5114318;28;20198;-74
2023/03/09 18:21:12;;;;;;;7.93;1.40;;;11.00;99.90;;;;;;5114233;28;20652;-74
2023/03/09 18:23:40;;;;;;;15.23;1.77;;;11.00;99.90;;;;;;5114218;28;20202;-74
2023/03/09 18:26:16;;;;;;;10.90;2.83;;;11.10;99.90;;;;;;5114256;28;20254;-74
2023/03/09 18:28:43;;;;;;;7.73;1.67;;;11.10;99.90;;;;;;5114111;28;20197;-74
2023/03/09 18:31:10;;;;;;;11.83;2.10;;;11.10;99.90;;;;;;5113937;28;20202;-72
2023/03/09 18:33:37;;;;;;;9.40;2.07;;;11.10;99.90;;;;;;5114062;28;20237;-75
2023/03/09 18:36:08;;;;;;;10.07;1.57;;;11.10;99.90;;;;;;5113980;28;20676;-75
2023/03/09 18:38:35;;;;;;;8.50;1.70;;;11.10;99.90;;;;;;5113828;28;20285;-72
2023/03/09 18:41:02;;;;;;;12.57;2.97;;;11.10;99.90;;;;;;5113818;28;20202;-72
2023/03/09 18:43:30;;;;;;;10.77;1.83;;;11.00;99.90;;;;;;5114312;28;20213;-72
2023/03/09 18:45:57;;;;;;;11.17;1.93;;;11.00;99.90;;;;;;5114747;28;20296;-72
2023/03/09 18:48:24;;;;;;;7.87;1.70;;;10.90;99.90;;;;;;5113765;28;20332;-73
2023/03/09 18:50:53;;;;;;;10.03;2.03;;;10.90;99.90;;;;;;5113545;28;20202;-73
2023/03/09 18:53:23;;;;;;;7.77;1.77;;;10.90;99.90;;;;;;5114184;28;20229;-72
2023/03/09 18:55:54;;;;;;;6.07;1.13;;;10.90;99.90;;;;;;5114065;28;20225;-73
2023/03/09 18:58:21;;;;;;;9.10;1.43;;;10.90;99.90;;;;;;5113450;28;20218;-74
2023/03/09 19:00:50;;;;;;;5.93;1.77;;;10.90;99.90;;;;;;5114516;28;20659;-73
2023/03/09 19:03:17;;;;;;;6.97;1.80;;;10.90;99.90;;;;;;5114381;28;20273;-72
2023/03/09 19:05:44;;;;;;;12.73;2.20;;;10.90;99.90;;;;;;5127048;27;20613;-75
2023/03/09 19:08:11;;;;;;;9.33;1.70;;;10.90;99.90;;;;;;5132452;27;20299;-75
2023/03/09 19:10:39;;;;;;;7.20;1.60;;;11.00;99.90;;;;;;5133251;27;20195;-75
2023/03/09 19:13:08;;;;;;;6.27;1.60;;;11.10;99.90;;;;;;5132955;27;20270;-74
2023/03/09 19:15:39;;;;;;;6.80;2.00;;;11.10;99.90;;;;;;5132457;27;20295;-74
2023/03/09 19:18:07;;;;;;;5.13;1.57;;;11.10;99.90;;;;;;5132894;27;20236;-75
2023/03/09 19:20:34;;;;;;;10.03;1.70;;;11.20;99.90;;;;;;5131677;27;20211;-74
2023/03/09 19:23:01;;;;;;;5.97;1.50;;;11.20;99.90;;;;;;5118802;27;20301;-74
2023/03/09 19:25:28;;;;;;;14.00;2.33;;;11.10;99.90;;;;;;5121029;27;20348;-75
2023/03/09 19:27:55;;;;;;;8.73;1.70;;;11.10;99.90;;;;;;5121359;27;20214;-76
2023/03/09 19:30:22;;;;;;;6.43;1.47;;;11.10;99.90;;;;;;5121880;27;20213;-75
2023/03/09 19:32:49;;;;;;;8.50;1.40;;;11.10;99.90;;;;;;5117313;28;20236;-75
2023/03/09 19:35:19;;;;;;;6.20;1.20;;;11.10;99.90;;;;;;5123610;28;20202;-74
2023/03/09 19:37:46;;;;;;;5.53;1.13;;;11.20;99.90;;;;;;5113960;28;20308;-74
2023/03/09 19:40:14;;;;;;;9.93;1.30;;;11.20;99.90;;;;;;5114258;28;20202;-73
2023/03/09 19:42:43;;;;;;;4.90;1.00;;;11.20;99.90;;;;;;5130328;28;20281;-73
2023/03/09 19:45:11;;;;;;;6.40;1.20;;;11.20;99.90;;;;;;5115079;28;20205;-74
2023/03/09 19:47:40;;;;;;;7.27;1.80;;;11.10;99.90;;;;;;5128531;28;20307;-74
2023/03/09 19:50:08;;;;;;;11.70;1.67;;;11.10;99.90;;;;;;5124937;28;20552;-74
2023/03/09 19:52:36;;;;;;;5.90;1.27;;;11.20;99.90;;;;;;5125859;28;20202;-74
2023/03/09 19:55:03;;;;;;;7.53;1.43;;;11.20;99.90;;;;;;5122920;28;20201;-73
2023/03/09 19:57:30;;;;;;;7.17;1.73;;;11.20;99.90;;;;;;5119222;28;20232;-74
2023/03/09 19:59:59;;;;;;;7.03;1.33;;;11.20;99.90;;;;;;5123473;28;20200;-74
2023/03/09 20:02:26;;;;;;;4.37;1.13;;;11.10;99.90;;;;;;5122368;28;20559;-73
2023/03/09 20:04:52;;;;;;;6.47;1.73;;;11.10;99.90;;;;;;5124217;28;20216;-74
2023/03/09 20:07:19;;;;;;;4.87;1.10;;;11.10;99.90;;;;;;5121999;28;20223;-75
2023/03/09 20:09:47;;;;;;;7.80;1.60;;;11.10;99.90;;;;;;5127142;28;20201;-73
2023/03/09 20:12:14;;;;;;;5.20;1.33;;;11.10;99.90;;;;;;5125854;28;20193;-75
2023/03/09 20:14:41;;;;;;;17.90;6.00;;;11.10;99.90;;;;;;5125033;28;20698;-74
2023/03/09 20:17:08;;;;;;;7.70;1.87;;;11.10;99.90;;;;;;5123412;28;20239;-74
2023/03/09 20:19:34;;;;;;;10.27;1.43;;;11.10;99.90;;;;;;5127174;27;20203;-74
2023/03/09 20:22:06;;;;;;;6.00;1.90;;;11.10;99.90;;;;;;5125881;27;20204;-75
2023/03/09 20:24:33;;;;;;;8.70;1.33;;;11.10;99.90;;;;;;5127491;27;20209;-76
2023/03/09 20:27:01;;;;;;;4.67;1.37;;;11.20;99.90;;;;;;5121584;27;20221;-76
2023/03/09 20:29:30;;;;;;;7.23;1.47;;;11.10;99.90;;;;;;5127506;27;20659;-74
2023/03/09 20:31:58;;;;;;;3.70;0.90;;;11.10;99.90;;;;;;5131288;27;20607;-74
2023/03/09 20:34:24;;;;;;;3.23;1.20;;;11.10;99.90;;;;;;5131589;27;20225;-74
2023/03/09 20:36:51;;;;;;;2.83;1.17;;;11.20;99.90;;;;;;5124244;27;20221;-74
2023/03/09 20:39:19;;;;;;;3.93;1.60;;;11.20;99.90;;;;;;5129666;27;20208;-74
2023/03/09 20:41:45;;;;;;;2.57;1.00;;;11.20;99.90;;;;;;5131975;27;20197;-74
2023/03/09 20:44:13;;;;;;;5.83;1.20;;;11.20;99.90;;;;;;5129472;27;20198;-74
2023/03/09 20:46:41;;;;;;;5.40;1.07;;;11.20;99.90;;;;;;5130140;27;20582;-73
2023/03/09 20:49:07;;;;;;;4.40;1.07;;;11.20;99.90;;;;;;5129453;27;20200;-73
2023/03/09 20:51:34;;;;;;;7.90;1.30;;;11.20;99.90;;;;;;5128188;27;20211;-74
2023/03/09 20:54:02;;;;;;;2.97;0.93;;;11.20;99.90;;;;;;5128798;27;20602;-73
2023/03/09 20:56:29;;;;;;;7.00;1.23;;;11.20;99.90;;;;;;5126944;27;20248;-73
2023/03/09 20:58:57;;;;;;;6.90;1.40;;;11.20;99.90;;;;;;5127577;27;20205;-76
2023/03/09 21:01:25;;;;;;;3.80;0.80;;;11.20;99.90;;;;;;5124652;27;20258;-73
2023/03/09 21:03:52;;;;;;;8.17;2.43;;;11.10;99.90;;;;;;5118374;27;20197;-74
2023/03/09 21:06:19;;;;;;;3.93;1.30;;;11.10;99.90;;;;;;5126880;27;20193;-73
2023/03/09 21:08:50;;;;;;;5.33;1.40;;;11.10;99.90;;;;;;5126818;27;20212;-73
2023/03/09 21:11:17;;;;;;;3.00;0.83;;;11.20;99.90;;;;;;5125453;27;20224;-73
2023/03/09 21:13:44;;;;;;;4.00;1.00;;;11.10;99.90;;;;;;5124333;27;20588;-74
2023/03/09 21:16:15;;;;;;;3.37;1.50;;;11.10;99.90;;;;;;5120952;27;20204;-74
2023/03/09 21:18:43;;;;;;;7.80;1.00;;;11.10;99.90;;;;;;5127157;27;20204;-74
2023/03/09 21:21:10;;;;;;;2.60;1.40;;;11.10;99.90;;;;;;5125338;27;20202;-74
2023/03/09 21:23:37;;;;;;;3.17;0.97;;;11.10;99.90;;;;;;5132403;27;20254;-74
2023/03/09 21:26:06;;;;;;;3.50;1.00;;;11.10;99.90;;;;;;5121734;27;20198;-74
2023/03/09 21:28:32;;;;;;;1.50;0.70;;;11.10;99.90;;;;;;5133155;27;20193;-74
2023/03/09 21:31:00;;;;;;;2.97;0.90;;;11.10;99.90;;;;;;5126446;27;20251;-74
2023/03/09 21:33:27;;;;;;;2.43;1.10;;;11.10;99.90;;;;;;5132653;27;20228;-74
2023/03/09 21:35:55;;;;;;;5.67;0.90;;;11.10;99.90;;;;;;5125679;27;20276;-74
2023/03/09 21:38:23;;;;;;;6.37;1.03;;;11.10;99.90;;;;;;5132438;27;20228;-74
2023/03/09 21:40:50;;;;;;;3.20;0.97;;;11.10;99.90;;;;;;5124046;27;20216;-75
2023/03/09 21:43:16;;;;;;;5.27;0.90;;;11.10;99.90;;;;;;5131705;27;20201;-75
2023/03/09 21:45:43;;;;;;;4.27;0.90;;;11.10;99.90;;;;;;5123404;27;20246;-74
2023/03/09 21:48:10;;;;;;;2.30;0.77;;;11.10;99.90;;;;;;5135319;27;20219;-75
2023/03/09 21:50:38;;;;;;;2.53;0.73;;;11.00;99.90;;;;;;5134867;27;20212;-74
2023/03/09 21:53:09;;;;;;;7.77;0.93;;;11.10;99.90;;;;;;5134881;27;20197;-74
2023/03/09 21:55:37;;;;;;;1.97;0.93;;;11.10;99.90;;;;;;5134843;27;20532;-74
2023/03/09 21:58:04;;;;;;;3.20;0.90;;;11.10;99.90;;;;;;5135176;27;20223;-73
2023/03/09 22:00:31;;;;;;;2.40;0.83;;;11.10;99.90;;;;;;5134410;27;20211;-74
2023/03/09 22:02:58;;;;;;;2.30;1.03;;;11.10;99.90;;;;;;5134865;27;20254;-74
2023/03/09 22:05:25;;;;;;;1.70;0.83;;;11.20;99.90;;;;;;5134685;27;20205;-74
2023/03/09 22:07:55;;;;;;;1.17;0.80;;;11.10;99.90;;;;;;5134657;27;20309;-74
2023/03/09 22:10:23;;;;;;;3.10;1.00;;;11.10;99.90;;;;;;5134381;27;20690;-73
2023/03/09 22:12:50;;;;;;;2.03;0.80;;;11.10;99.90;;;;;;5134604;27;20207;-74
2023/03/09 22:15:17;;;;;;;2.00;0.80;;;11.10;99.90;;;;;;5134086;27;20691;-76
2023/03/09 22:17:44;;;;;;;7.70;0.70;;;11.00;99.90;;;;;;5134475;27;20578;-74
2023/03/09 22:20:12;;;;;;;0.90;0.43;;;11.00;99.90;;;;;;5133981;27;20205;-74
2023/03/09 22:22:41;;;;;;;2.77;0.50;;;10.90;99.90;;;;;;5134414;27;20285;-75
2023/03/09 22:25:10;;;;;;;0.70;0.43;;;10.80;99.90;;;;;;5133972;27;20201;-74
2023/03/09 22:27:38;;;;;;;1.93;0.50;;;10.80;99.90;;;;;;5134295;27;20224;-77
2023/03/09 22:30:10;;;;;;;5.70;0.63;;;10.80;99.90;;;;;;5133320;27;20208;-77
2023/03/09 22:32:37;;;;;;;3.30;0.50;;;10.80;99.90;;;;;;5133960;27;20220;-74
2023/03/09 22:35:05;;;;;;;2.13;0.47;;;10.70;99.90;;;;;;5133960;27;20568;-75
2023/03/09 22:37:33;;;;;;;1.90;0.50;;;10.70;99.90;;;;;;5133898;27;20304;-74
2023/03/09 22:40:00;;;;;;;1.33;0.30;;;10.70;99.90;;;;;;5133731;27;20646;-74
2023/03/09 22:42:27;;;;;;;5.63;0.90;;;10.70;99.90;;;;;;5133344;27;20205;-74
2023/03/09 22:44:55;;;;;;;1.13;0.40;;;10.70;99.90;;;;;;5134243;27;20193;-75
2023/03/09 22:47:22;;;;;;;0.80;0.57;;;10.70;99.90;;;;;;5134536;27;20227;-74
2023/03/09 22:49:49;;;;;;;1.70;0.77;;;10.70;99.90;;;;;;5133843;27;20201;-75
2023/03/09 22:52:15;;;;;;;0.50;0.40;;;10.70;99.90;;;;;;5133551;27;20193;-74
2023/03/09 22:54:45;;;;;;;2.17;0.50;;;10.70;99.90;;;;;;5133573;27;20243;-77
2023/03/09 22:57:12;;;;;;;1.73;0.30;;;10.70;99.90;;;;;;5133331;27;20217;-76
2023/03/09 22:59:39;;;;;;;0.73;0.50;;;10.70;99.90;;;;;;5126142;27;20206;-74
2023/03/09 23:02:08;;;;;;;0.70;0.50;;;10.70;99.90;;;;;;5120184;27;20387;-76
